createdAt,value
2023-01-19T00:00:06.153Z,6.65
2023-01-19T00:02:54.953Z,6.58
2023-01-19T00:05:22.116Z,6.61
2023-01-19T00:07:49.261Z,6.63
2023-01-19T00:10:16.384Z,6.62
2023-01-19T00:12:43.481Z,6.63
2023-01-19T00:15:10.821Z,6.60
2023-01-19T00:17:40.938Z,6.59
2023-01-19T00:20:09.478Z,6.55
2023-01-19T00:22:36.591Z,6.54
2023-01-19T00:25:03.774Z,6.53
2023-01-19T00:27:34.894Z,6.53
2023-01-19T00:30:02.244Z,6.55
2023-01-19T00:32:29.352Z,6.53
2023-01-19T00:34:56.140Z,6.50
2023-01-19T00:37:23.316Z,6.52
2023-01-19T00:39:50.167Z,6.49
2023-01-19T00:42:35.587Z,6.47
2023-01-19T00:45:02.344Z,6.48
2023-01-19T00:47:29.478Z,6.55
2023-01-19T00:49:56.479Z,6.47
2023-01-19T00:52:23.496Z,6.47
2023-01-19T00:54:50.315Z,6.50
2023-01-19T00:57:19.177Z,6.49
2023-01-19T00:59:45.934Z,6.44
2023-01-19T01:02:13.240Z,6.53
2023-01-19T01:04:40.137Z,6.44
2023-01-19T01:07:07.253Z,6.47
2023-01-19T01:09:34.004Z,6.46
2023-01-19T01:12:01.140Z,6.42
2023-01-19T01:14:27.953Z,6.40
2023-01-19T01:16:55.165Z,6.43
2023-01-19T01:19:21.956Z,6.41
2023-01-19T01:21:49.119Z,6.42
2023-01-19T01:24:16.349Z,6.42
2023-01-19T01:26:43.453Z,6.43
2023-01-19T01:29:10.253Z,6.37
2023-01-19T01:31:37.364Z,6.38
2023-01-19T01:34:04.451Z,6.43
2023-01-19T01:36:33.466Z,6.45
2023-01-19T01:39:00.547Z,6.44
2023-01-19T01:41:27.715Z,6.46
2023-01-19T01:43:58.662Z,6.40
2023-01-19T01:46:26.521Z,6.40
2023-01-19T01:49:13.819Z,6.41
2023-01-19T01:51:42.105Z,6.42
2023-01-19T01:54:19.009Z,6.37
2023-01-19T01:56:51.514Z,6.34
2023-01-19T01:59:29.349Z,6.34
2023-01-19T02:02:16.064Z,6.37
2023-01-19T02:04:54.279Z,6.36
2023-01-19T02:07:48.842Z,6.36
2023-01-19T02:10:34.160Z,6.36
2023-01-19T02:13:22.425Z,6.34
2023-01-19T02:15:51.055Z,6.32
2023-01-19T02:18:18.840Z,6.36
2023-01-19T02:20:53.870Z,6.35
2023-01-19T02:23:27.298Z,6.33
2023-01-19T02:25:54.047Z,6.37
2023-01-19T02:28:21.195Z,6.37
2023-01-19T02:30:47.948Z,6.34
2023-01-19T02:33:15.057Z,6.32
2023-01-19T02:35:41.890Z,6.29
2023-01-19T02:38:08.989Z,6.35
2023-01-19T02:40:35.798Z,6.37
2023-01-19T02:43:03.410Z,6.36
2023-01-19T02:45:30.337Z,6.35
2023-01-19T02:47:57.397Z,6.34
2023-01-19T02:50:39.426Z,6.39
2023-01-19T02:53:14.370Z,6.41
2023-01-19T02:55:41.156Z,6.43
2023-01-19T02:58:12.046Z,6.37
2023-01-19T03:00:52.418Z,6.35
2023-01-19T03:03:27.774Z,6.41
2023-01-19T03:06:14.845Z,6.42
2023-01-19T03:08:48.000Z,6.40
2023-01-19T03:11:15.024Z,6.40
2023-01-19T03:13:44.025Z,6.39
2023-01-19T03:16:29.738Z,6.41
2023-01-19T03:19:00.062Z,6.42
2023-01-19T03:21:27.618Z,6.43
2023-01-19T03:23:55.997Z,6.40
2023-01-19T03:26:26.250Z,6.38
2023-01-19T03:28:53.360Z,6.40
2023-01-19T03:31:22.969Z,6.41
2023-01-19T03:33:51.958Z,6.36
2023-01-19T03:36:22.918Z,6.41
2023-01-19T03:38:50.206Z,6.37
2023-01-19T03:41:17.867Z,6.41
2023-01-19T03:43:44.949Z,6.36
2023-01-19T03:46:11.820Z,6.41
2023-01-19T03:48:39.001Z,6.41
2023-01-19T03:51:06.775Z,6.40
2023-01-19T03:53:33.893Z,6.37
2023-01-19T03:56:00.725Z,6.41
2023-01-19T03:58:28.354Z,6.37
2023-01-19T04:00:55.228Z,6.36
2023-01-19T04:03:22.309Z,6.39
2023-01-19T04:05:49.331Z,6.41
2023-01-19T04:08:16.449Z,6.39
2023-01-19T04:10:43.220Z,6.39
2023-01-19T04:13:10.568Z,6.39
2023-01-19T04:15:37.387Z,6.35
2023-01-19T04:18:05.407Z,6.38
2023-01-19T04:20:32.152Z,6.39
2023-01-19T04:23:00.059Z,6.36
2023-01-19T04:25:27.908Z,6.37
2023-01-19T04:27:55.273Z,6.37
2023-01-19T04:30:22.684Z,6.41
2023-01-19T04:32:49.811Z,6.37
2023-01-19T04:35:17.054Z,6.37
2023-01-19T04:37:45.056Z,6.35
2023-01-19T04:40:12.205Z,6.35
2023-01-19T04:42:39.344Z,6.35
2023-01-19T04:45:06.543Z,6.37
2023-01-19T04:47:33.656Z,6.32
2023-01-19T04:50:00.376Z,6.35
2023-01-19T04:52:35.090Z,6.31
2023-01-19T04:55:02.975Z,6.34
2023-01-19T04:57:30.485Z,6.35
2023-01-19T04:59:57.848Z,6.32
2023-01-19T05:02:25.164Z,6.28
2023-01-19T05:04:52.026Z,6.27
2023-01-19T05:07:19.114Z,6.34
2023-01-19T05:09:45.838Z,6.28
2023-01-19T05:12:12.887Z,6.28
2023-01-19T05:14:39.635Z,6.26
2023-01-19T05:17:06.727Z,6.31
2023-01-19T05:19:33.476Z,6.29
2023-01-19T05:22:00.527Z,6.34
2023-01-19T05:24:27.251Z,6.27
2023-01-19T05:26:54.344Z,6.30
2023-01-19T05:29:21.183Z,6.27
2023-01-19T05:31:48.253Z,6.28
2023-01-19T05:34:15.305Z,6.26
2023-01-19T05:36:42.433Z,6.24
2023-01-19T05:39:09.231Z,6.31
2023-01-19T05:41:36.268Z,6.30
2023-01-19T05:44:03.095Z,6.26
2023-01-19T05:46:30.170Z,6.42
2023-01-19T05:48:57.018Z,6.45
2023-01-19T05:51:24.131Z,6.41
2023-01-19T05:53:50.864Z,6.36
2023-01-19T05:56:17.936Z,6.32
2023-01-19T05:58:44.658Z,6.32
2023-01-19T06:01:11.772Z,6.36
2023-01-19T06:03:39.600Z,6.32
2023-01-19T06:06:06.992Z,6.31
2023-01-19T06:08:33.808Z,6.37
2023-01-19T06:11:00.899Z,6.32
2023-01-19T06:13:27.698Z,6.32
2023-01-19T06:15:58.927Z,6.34
2023-01-19T06:18:25.867Z,6.30
2023-01-19T06:20:58.571Z,6.28
2023-01-19T06:23:26.430Z,6.26
2023-01-19T06:25:53.480Z,6.29
2023-01-19T06:28:20.259Z,6.31
2023-01-19T06:30:50.924Z,6.26
2023-01-19T06:33:17.999Z,6.29
2023-01-19T06:35:48.314Z,6.32
2023-01-19T06:38:15.142Z,6.31
2023-01-19T06:40:42.224Z,6.27
2023-01-19T06:43:09.158Z,6.27
2023-01-19T06:45:36.559Z,6.31
2023-01-19T06:48:04.237Z,6.29
2023-01-19T06:50:31.375Z,6.26
2023-01-19T06:52:58.689Z,6.30
2023-01-19T06:55:27.689Z,6.26
2023-01-19T06:57:58.916Z,6.31
2023-01-19T07:00:26.345Z,6.29
2023-01-19T07:02:53.161Z,6.32
2023-01-19T07:05:22.106Z,6.31
2023-01-19T07:07:53.170Z,6.32
2023-01-19T07:10:20.213Z,6.36
2023-01-19T07:12:47.498Z,6.35
2023-01-19T07:15:15.688Z,6.34
2023-01-19T07:17:42.675Z,6.37
2023-01-19T07:20:13.012Z,6.30
2023-01-19T07:22:41.317Z,6.32
2023-01-19T07:25:08.836Z,6.28
2023-01-19T07:27:35.643Z,6.32
2023-01-19T07:30:02.783Z,6.34
2023-01-19T07:32:29.546Z,6.30
2023-01-19T07:34:56.840Z,6.35
2023-01-19T07:37:23.708Z,6.32
2023-01-19T07:39:50.840Z,6.30
2023-01-19T07:42:17.800Z,6.26
2023-01-19T07:44:44.842Z,6.32
2023-01-19T07:47:12.748Z,6.37
2023-01-19T07:49:40.128Z,6.39
2023-01-19T07:52:07.062Z,6.36
2023-01-19T07:54:34.418Z,6.34
2023-01-19T07:57:01.170Z,6.40
2023-01-19T07:59:30.305Z,6.36
2023-01-19T08:01:59.565Z,6.35
2023-01-19T08:04:27.378Z,6.37
2023-01-19T08:06:54.432Z,6.36
2023-01-19T08:09:21.660Z,6.34
2023-01-19T08:11:48.413Z,6.39
2023-01-19T08:14:15.508Z,6.37
2023-01-19T08:16:42.253Z,6.34
2023-01-19T08:19:09.426Z,6.34
2023-01-19T08:21:36.457Z,6.39
2023-01-19T08:24:03.613Z,6.37
2023-01-19T08:26:32.345Z,6.39
2023-01-19T08:29:01.682Z,6.39
2023-01-19T08:31:28.661Z,6.41
2023-01-19T08:33:55.911Z,6.43
2023-01-19T08:36:23.868Z,6.36
2023-01-19T08:38:51.084Z,6.43
2023-01-19T08:41:17.855Z,6.42
2023-01-19T08:43:45.530Z,6.40
2023-01-19T08:46:12.507Z,6.44
2023-01-19T08:48:40.072Z,6.42
2023-01-19T08:51:06.937Z,6.41
2023-01-19T08:53:34.718Z,6.43
2023-01-19T08:56:02.320Z,6.46
2023-01-19T08:58:29.432Z,6.45
2023-01-19T09:00:56.310Z,6.45
2023-01-19T09:03:23.462Z,6.48
2023-01-19T09:05:50.432Z,6.47
2023-01-19T09:08:17.544Z,6.49
2023-01-19T09:10:46.302Z,6.47
2023-01-19T09:13:13.508Z,6.46
2023-01-19T09:15:40.459Z,6.48
2023-01-19T09:18:13.617Z,6.46
2023-01-19T09:20:44.461Z,6.50
2023-01-19T09:23:12.504Z,6.56
2023-01-19T09:25:39.826Z,6.60
2023-01-19T09:28:07.851Z,6.57
2023-01-19T09:30:36.758Z,6.53
2023-01-19T09:33:06.348Z,6.60
2023-01-19T09:35:36.988Z,6.58
2023-01-19T09:38:04.285Z,6.55
2023-01-19T09:40:31.177Z,6.58
2023-01-19T09:43:05.024Z,6.63
2023-01-19T09:45:36.186Z,6.64
2023-01-19T09:48:16.031Z,6.58
2023-01-19T09:50:47.455Z,6.58
2023-01-19T09:53:17.910Z,6.55
2023-01-19T09:55:44.794Z,6.62
2023-01-19T09:58:16.469Z,6.63
2023-01-19T10:00:44.643Z,6.65
2023-01-19T10:03:15.677Z,6.60
2023-01-19T10:05:49.520Z,6.60
2023-01-19T10:08:18.623Z,6.62
2023-01-19T10:10:53.259Z,6.60
2023-01-19T10:13:39.047Z,6.60
2023-01-19T10:16:33.965Z,6.61
2023-01-19T10:19:03.194Z,6.66
2023-01-19T10:21:33.750Z,6.66
2023-01-19T10:24:20.551Z,6.62
2023-01-19T10:26:52.548Z,6.67
2023-01-19T10:29:42.257Z,6.66
2023-01-19T10:32:17.073Z,6.66
2023-01-19T10:34:44.256Z,6.65
2023-01-19T10:37:31.880Z,6.70
2023-01-19T10:40:19.925Z,6.68
2023-01-19T10:42:46.901Z,6.68
2023-01-19T10:45:24.528Z,6.67
2023-01-19T10:47:52.802Z,6.70
2023-01-19T10:50:30.797Z,6.71
2023-01-19T10:52:59.617Z,6.74
2023-01-19T10:55:34.254Z,6.69
2023-01-19T10:58:01.460Z,6.71
2023-01-19T11:00:30.030Z,6.72
2023-01-19T11:02:56.916Z,6.70
2023-01-19T11:05:28.702Z,6.74
2023-01-19T11:07:56.303Z,6.73
2023-01-19T11:10:25.005Z,6.71
2023-01-19T11:13:12.545Z,6.77
2023-01-19T11:15:49.159Z,6.80
2023-01-19T11:18:35.994Z,6.77
2023-01-19T11:21:14.009Z,6.77
2023-01-19T11:23:51.265Z,6.80
2023-01-19T11:26:25.481Z,6.83
2023-01-19T11:28:54.638Z,6.77
2023-01-19T11:31:33.199Z,6.83
2023-01-19T11:34:05.103Z,6.81
2023-01-19T11:36:34.410Z,6.83
2023-01-19T11:39:15.931Z,6.86
2023-01-19T11:41:43.548Z,6.87
2023-01-19T11:44:29.205Z,6.86
2023-01-19T11:47:01.179Z,6.89
2023-01-19T11:49:46.680Z,6.88
2023-01-19T11:52:43.923Z,6.91
2023-01-19T11:55:17.628Z,6.93
2023-01-19T11:57:49.260Z,6.84
2023-01-19T12:00:36.490Z,6.86
2023-01-19T12:03:14.480Z,6.95
2023-01-19T12:05:42.432Z,6.90
2023-01-19T12:08:40.847Z,6.96
2023-01-19T12:11:08.785Z,6.93
2023-01-19T12:13:35.929Z,6.94
2023-01-19T12:16:12.209Z,6.93
2023-01-19T12:18:45.097Z,6.94
2023-01-19T12:21:12.219Z,7.00
2023-01-19T12:23:54.670Z,6.88
2023-01-19T12:26:36.865Z,6.95
2023-01-19T12:29:24.269Z,6.98
2023-01-19T12:32:21.951Z,6.97
2023-01-19T12:34:49.901Z,7.01
2023-01-19T12:37:36.274Z,7.03
2023-01-19T12:40:22.045Z,7.01
2023-01-19T12:43:01.829Z,6.98
2023-01-19T12:45:33.059Z,7.07
2023-01-19T12:47:59.887Z,7.10
2023-01-19T12:50:29.297Z,7.08
2023-01-19T12:52:58.462Z,7.08
2023-01-19T12:55:25.659Z,7.08
2023-01-19T12:58:07.743Z,7.06
2023-01-19T13:00:38.925Z,7.09
2023-01-19T13:03:17.966Z,7.13
2023-01-19T13:05:45.008Z,7.11
2023-01-19T13:08:12.631Z,7.00
2023-01-19T13:11:09.688Z,7.02
2023-01-19T13:13:37.172Z,7.03
2023-01-19T13:16:19.805Z,7.06
2023-01-19T13:18:53.431Z,7.05
2023-01-19T13:21:34.155Z,7.06
2023-01-19T13:24:05.216Z,7.06
2023-01-19T13:26:33.884Z,7.08
2023-01-19T13:29:15.823Z,7.05
2023-01-19T13:31:44.643Z,7.06
2023-01-19T13:34:16.958Z,7.01
2023-01-19T13:36:45.574Z,7.08
2023-01-19T13:39:17.682Z,7.10
2023-01-19T13:41:45.595Z,7.08
2023-01-19T13:44:19.294Z,7.08
2023-01-19T13:46:47.093Z,7.08
2023-01-19T13:49:19.996Z,7.04
2023-01-19T13:52:03.936Z,7.07
2023-01-19T13:54:30.747Z,7.11
2023-01-19T13:56:57.809Z,7.11
2023-01-19T13:59:24.550Z,7.04
2023-01-19T14:01:54.252Z,7.04
2023-01-19T14:04:32.194Z,7.02
2023-01-19T14:07:04.423Z,7.03
2023-01-19T14:09:31.308Z,7.01
2023-01-19T14:12:11.893Z,7.08
2023-01-19T14:14:38.718Z,7.05
2023-01-19T14:17:17.880Z,7.03
2023-01-19T14:19:48.104Z,7.01
2023-01-19T14:22:15.316Z,7.10
2023-01-19T14:24:42.123Z,7.05
2023-01-19T14:27:20.507Z,7.02
2023-01-19T14:29:50.002Z,7.02
2023-01-19T14:32:18.178Z,7.06
2023-01-19T14:34:46.883Z,7.07
2023-01-19T14:37:21.194Z,7.05
2023-01-19T14:40:01.301Z,7.08
2023-01-19T14:42:47.867Z,7.13
2023-01-19T14:45:17.548Z,7.10
2023-01-19T14:47:45.012Z,7.03
2023-01-19T14:50:23.976Z,7.03
2023-01-19T14:53:02.345Z,7.02
2023-01-19T14:55:33.908Z,7.00
2023-01-19T14:58:01.355Z,7.02
2023-01-19T15:00:28.198Z,7.01
2023-01-19T15:02:55.357Z,7.00
2023-01-19T15:05:22.225Z,7.02
2023-01-19T15:07:49.449Z,7.01
2023-01-19T15:10:20.637Z,7.02
2023-01-19T15:12:48.753Z,7.02
2023-01-19T15:15:17.385Z,7.01
2023-01-19T15:17:44.562Z,7.00
2023-01-19T15:20:16.294Z,7.01
2023-01-19T15:22:44.007Z,7.01
2023-01-19T15:25:19.333Z,6.99
2023-01-19T15:27:46.703Z,7.01
2023-01-19T15:30:21.228Z,7.01
2023-01-19T15:32:48.480Z,7.02
2023-01-19T15:35:22.600Z,6.98
2023-01-19T15:37:50.100Z,7.00
2023-01-19T15:40:17.689Z,6.99
2023-01-19T15:42:44.992Z,7.04
2023-01-19T15:45:38.584Z,7.05
2023-01-19T15:48:07.466Z,6.98
2023-01-19T15:50:36.157Z,6.95
2023-01-19T15:53:03.407Z,7.05
2023-01-19T15:55:30.239Z,7.02
2023-01-19T15:58:03.483Z,7.04
2023-01-19T16:00:31.557Z,7.02
2023-01-19T16:02:59.004Z,7.03
2023-01-19T16:05:37.446Z,7.00
2023-01-19T16:08:10.234Z,7.01
2023-01-19T16:10:37.040Z,6.98
2023-01-19T16:13:04.232Z,7.08
2023-01-19T16:15:31.040Z,7.08
2023-01-19T16:17:58.494Z,7.01
2023-01-19T16:20:25.375Z,7.05
2023-01-19T16:22:54.866Z,6.98
2023-01-19T16:25:23.513Z,7.01
2023-01-19T16:27:50.717Z,6.98
2023-01-19T16:30:19.389Z,6.97
2023-01-19T16:32:46.754Z,6.94
2023-01-19T16:35:15.556Z,6.93
2023-01-19T16:37:42.677Z,6.91
2023-01-19T16:40:10.289Z,7.02
2023-01-19T16:42:37.593Z,7.06
2023-01-19T16:45:04.655Z,7.02
2023-01-19T16:47:31.793Z,6.97
2023-01-19T16:49:58.561Z,6.93
2023-01-19T16:52:25.683Z,6.91
2023-01-19T16:54:54.739Z,6.93
2023-01-19T16:57:21.840Z,6.88
2023-01-19T16:59:50.583Z,6.88
2023-01-19T17:02:18.065Z,6.91
2023-01-19T17:04:44.905Z,6.91
2023-01-19T17:07:11.990Z,6.90
2023-01-19T17:09:39.017Z,6.88
2023-01-19T17:12:09.198Z,6.88
2023-01-19T17:14:37.402Z,6.88
2023-01-19T17:17:05.117Z,6.85
2023-01-19T17:19:31.982Z,6.85
2023-01-19T17:21:59.118Z,6.86
2023-01-19T17:24:25.960Z,6.88
2023-01-19T17:26:53.083Z,6.84
2023-01-19T17:29:19.863Z,6.85
2023-01-19T17:31:47.978Z,6.85
2023-01-19T17:34:14.815Z,6.84
2023-01-19T17:36:41.910Z,6.80
2023-01-19T17:39:11.311Z,6.80
2023-01-19T17:41:38.577Z,6.80
2023-01-19T17:44:05.761Z,6.80
2023-01-19T17:46:35.625Z,6.84
2023-01-19T17:49:03.609Z,6.79
2023-01-19T17:51:30.820Z,6.78
2023-01-19T17:53:57.725Z,6.80
2023-01-19T17:56:29.484Z,6.79
2023-01-19T17:58:57.060Z,6.79
2023-01-19T18:01:25.943Z,6.77
2023-01-19T18:03:53.136Z,6.77
2023-01-19T18:06:20.375Z,6.74
2023-01-19T18:08:47.498Z,6.75
2023-01-19T18:11:15.189Z,6.78
2023-01-19T18:13:42.936Z,6.75
2023-01-19T18:16:14.932Z,6.76
2023-01-19T18:18:42.086Z,6.72
2023-01-19T18:21:10.724Z,6.72
2023-01-19T18:23:37.510Z,6.76
2023-01-19T18:26:13.248Z,6.80
2023-01-19T18:28:39.954Z,6.75
2023-01-19T18:31:12.615Z,6.75
2023-01-19T18:33:39.985Z,6.73
2023-01-19T18:36:07.831Z,6.73
2023-01-19T18:38:34.673Z,6.79
2023-01-19T18:41:05.367Z,6.78
2023-01-19T18:43:32.151Z,6.75
2023-01-19T18:45:59.334Z,6.76
2023-01-19T18:48:26.272Z,6.74
2023-01-19T18:50:53.527Z,6.74
2023-01-19T18:53:20.527Z,6.76
2023-01-19T18:55:56.032Z,6.69
2023-01-19T18:58:23.019Z,6.73
2023-01-19T19:00:50.457Z,6.74
2023-01-19T19:03:17.376Z,6.73
2023-01-19T19:05:44.516Z,6.71
2023-01-19T19:08:11.416Z,6.74
2023-01-19T19:10:40.463Z,6.75
2023-01-19T19:13:07.807Z,6.77
2023-01-19T19:15:34.928Z,6.77
2023-01-19T19:18:01.787Z,6.74
2023-01-19T19:20:28.960Z,6.75
2023-01-19T19:22:56.001Z,6.75
2023-01-19T19:25:23.287Z,6.74
2023-01-19T19:27:51.434Z,6.73
2023-01-19T19:30:19.784Z,6.67
2023-01-19T19:32:59.983Z,6.71
2023-01-19T19:35:27.132Z,6.72
2023-01-19T19:37:57.496Z,6.76
2023-01-19T19:40:25.715Z,6.72
2023-01-19T19:42:52.545Z,6.74
2023-01-19T19:45:19.611Z,6.74
2023-01-19T19:47:46.443Z,6.74
2023-01-19T19:50:14.233Z,6.74
2023-01-19T19:52:41.547Z,6.73
2023-01-19T19:55:09.634Z,6.76
2023-01-19T19:57:36.569Z,6.74
2023-01-19T20:00:05.292Z,6.72
2023-01-19T20:02:32.480Z,6.72
2023-01-19T20:04:59.766Z,6.74
2023-01-19T20:07:26.584Z,6.75
2023-01-19T20:09:55.194Z,6.71
2023-01-19T20:12:22.228Z,6.74
2023-01-19T20:14:49.482Z,6.74
2023-01-19T20:17:16.317Z,6.72
2023-01-19T20:19:45.642Z,6.70
2023-01-19T20:22:12.484Z,6.75
2023-01-19T20:24:39.640Z,6.73
2023-01-19T20:27:06.419Z,6.74
2023-01-19T20:29:33.586Z,6.72
2023-01-19T20:32:00.694Z,6.71
2023-01-19T20:34:32.109Z,6.70
2023-01-19T20:37:00.748Z,6.68
2023-01-19T20:39:30.029Z,6.71
2023-01-19T20:41:56.951Z,6.71
2023-01-19T20:44:25.099Z,6.71
2023-01-19T20:46:52.440Z,6.71
2023-01-19T20:49:19.681Z,6.73
2023-01-19T20:51:46.996Z,6.70
2023-01-19T20:54:16.359Z,6.68
2023-01-19T20:56:43.189Z,6.72
2023-01-19T20:59:10.732Z,6.68
2023-01-19T21:01:37.750Z,6.68
2023-01-19T21:04:05.128Z,6.69
2023-01-19T21:06:32.002Z,6.73
2023-01-19T21:08:59.124Z,6.71
2023-01-19T21:11:26.149Z,6.67
2023-01-19T21:13:56.156Z,6.75
2023-01-19T21:16:24.380Z,6.70
2023-01-19T21:18:51.641Z,6.67
2023-01-19T21:21:29.762Z,6.67
2023-01-19T21:23:57.615Z,6.68
2023-01-19T21:26:24.407Z,6.67
2023-01-19T21:28:51.590Z,6.65
2023-01-19T21:31:18.573Z,6.70
2023-01-19T21:33:45.902Z,6.72
2023-01-19T21:36:12.878Z,6.68
2023-01-19T21:38:39.974Z,6.66
2023-01-19T21:41:08.101Z,6.67
2023-01-19T21:43:36.363Z,6.70
2023-01-19T21:46:11.145Z,6.68
2023-01-19T21:48:38.372Z,6.67
2023-01-19T21:51:05.281Z,6.72
2023-01-19T21:53:32.442Z,6.70
2023-01-19T21:56:00.355Z,6.65
2023-01-19T21:58:27.647Z,6.66
2023-01-19T22:01:06.028Z,6.67
2023-01-19T22:03:33.378Z,6.65
2023-01-19T22:06:10.762Z,6.65
2023-01-19T22:08:38.153Z,6.63
2023-01-19T22:11:09.452Z,6.65
2023-01-19T22:13:38.615Z,6.62
2023-01-19T22:16:10.436Z,6.62
2023-01-19T22:18:38.477Z,6.68
2023-01-19T22:21:09.635Z,6.64
2023-01-19T22:23:36.804Z,6.64
2023-01-19T22:26:04.369Z,6.61
2023-01-19T22:28:31.684Z,6.59
2023-01-19T22:31:09.220Z,6.61
2023-01-19T22:33:36.525Z,6.63
2023-01-19T22:36:10.219Z,6.64
2023-01-19T22:38:39.797Z,6.64
2023-01-19T22:41:19.944Z,6.60
2023-01-19T22:43:47.982Z,6.61
2023-01-19T22:46:21.814Z,6.59
2023-01-19T22:48:49.126Z,6.58
2023-01-19T22:51:16.384Z,6.62
2023-01-19T22:53:43.624Z,6.61
2023-01-19T22:56:17.842Z,6.60
2023-01-19T22:58:45.152Z,6.57
2023-01-19T23:01:17.023Z,6.58
2023-01-19T23:03:44.318Z,6.62
2023-01-19T23:06:16.068Z,6.56
2023-01-19T23:08:43.416Z,6.57
2023-01-19T23:11:12.257Z,6.59
2023-01-19T23:13:39.356Z,6.57
2023-01-19T23:16:06.634Z,6.56
2023-01-19T23:18:33.715Z,6.56
2023-01-19T23:21:11.835Z,6.53
2023-01-19T23:23:38.981Z,6.52
2023-01-19T23:26:07.942Z,6.52
2023-01-19T23:28:36.656Z,6.58
2023-01-19T23:31:23.693Z,6.55
2023-01-19T23:34:07.392Z,6.50
2023-01-19T23:36:35.749Z,6.53
2023-01-19T23:39:04.944Z,6.53
2023-01-19T23:41:33.194Z,6.50
2023-01-19T23:44:00.608Z,6.56
2023-01-19T23:46:27.785Z,6.50
2023-01-19T23:48:54.920Z,6.47
2023-01-19T23:51:26.185Z,6.44
2023-01-19T23:53:53.494Z,6.43
2023-01-19T23:56:22.069Z,6.45
2023-01-19T23:58:56.063Z,6.44
